Time;durP1;ratioP1;P1;durP2;ratioP2;P2;SDS_P1;SDS_P2;PMS_P1;PMS_P2;Temp;Humidity;BMP_temperature;BMP_pressure;BME280_temperature;BME280_humidity;BME280_pressure;Samples;Min_cycle;Max_cycle;Signal;HPM_P1;HPM_P2
2021/07/18 00:00:56;;;;;;;12.00;7.03;;;;;;;28.02;44.27;97060.22;5003001;28;20212;-29
2021/07/18 00:03:22;;;;;;;10.25;6.43;;;;;;;28.03;44.37;97056.63;4998959;28;20048;-33
2021/07/18 00:05:47;;;;;;;9.23;6.63;;;;;;;28.02;44.06;97054.94;5006308;28;20037;-32
2021/07/18 00:08:12;;;;;;;8.85;6.90;;;;;;;28.02;44.32;97061.06;4997466;28;20029;-32
2021/07/18 00:10:38;;;;;;;12.50;6.28;;;;;;;28.02;44.24;97061.06;4999945;28;20045;-32
2021/07/18 00:13:03;;;;;;;9.70;6.15;;;;;;;28.04;44.16;97061.00;5023831;28;20025;-37
2021/07/18 00:15:29;;;;;;;11.32;6.57;;;;;;;28.04;44.29;97059.19;4999931;28;20044;-35
2021/07/18 00:17:56;;;;;;;9.30;6.07;;;;;;;28.03;44.10;97057.50;5005454;28;20056;-35
2021/07/18 00:20:40;;;;;;;9.73;5.95;;;;;;;28.03;44.10;97057.50;5003386;28;20041;-33
2021/07/18 00:23:05;;;;;;;11.30;6.35;;;;;;;28.04;44.06;97055.72;5005454;28;20061;-35
2021/07/18 00:25:34;;;;;;;11.57;6.10;;;;;;;28.04;44.06;97055.72;4997798;28;20066;-32
2021/07/18 00:28:00;;;;;;;8.65;6.28;;;;;;;28.01;44.09;97045.34;5000533;28;20601;-32
2021/07/18 00:30:26;;;;;;;10.07;6.22;;;;;;;28.02;44.16;97047.91;4983086;28;20079;-30
2021/07/18 00:32:51;;;;;;;8.70;6.40;;;;;;;28.03;44.06;97056.63;5004084;28;20037;-31
2021/07/18 00:35:16;;;;;;;9.43;6.40;;;;;;;28.03;44.08;97062.78;5001048;28;20540;-32
2021/07/18 00:37:42;;;;;;;8.95;6.55;;;;;;;28.03;43.89;97051.38;5000977;28;20463;-32
2021/07/18 00:40:09;;;;;;;11.25;6.57;;;;;;;28.02;44.11;97054.94;4973436;28;20032;-30
2021/07/18 00:42:34;;;;;;;8.93;6.03;;;;;;;28.03;44.09;97046.97;5006650;28;20080;-31
2021/07/18 00:45:00;;;;;;;10.05;6.63;;;;;;;28.03;44.10;97043.47;5004996;28;20829;-30
2021/07/18 00:47:25;;;;;;;9.23;6.05;;;;;;;28.02;43.93;97039.16;5002732;28;23013;-32
2021/07/18 00:49:53;;;;;;;12.20;6.40;;;;;;;28.03;44.08;97035.56;5001272;28;20025;-33
2021/07/18 00:52:19;;;;;;;10.63;6.30;;;;;;;28.03;44.01;97033.78;5003712;28;20023;-32
2021/07/18 00:54:44;;;;;;;9.23;6.20;;;;;;;28.03;43.88;97036.44;5006620;28;20512;-32
2021/07/18 00:57:09;;;;;;;8.95;6.13;;;;;;;28.03;43.83;97041.69;5005903;28;20034;-32
2021/07/18 00:59:35;;;;;;;12.75;6.03;;;;;;;28.03;44.00;97046.09;5000530;28;20040;-32
2021/07/18 01:02:01;;;;;;;15.18;6.43;;;;;;;28.04;43.81;97050.47;4996553;28;20587;-32
2021/07/18 01:04:26;;;;;;;8.98;5.95;;;;;;;28.02;43.91;97039.16;5012098;28;20025;-31
2021/07/18 01:06:51;;;;;;;8.95;6.18;;;;;;;28.03;43.82;97038.19;5001252;28;20128;-30
2021/07/18 01:09:17;;;;;;;7.90;5.93;;;;;;;28.04;43.87;97042.56;5002036;28;20084;-32
2021/07/18 01:11:42;;;;;;;9.68;6.40;;;;;;;28.03;43.84;97041.69;4982277;28;20040;-30
2021/07/18 01:14:08;;;;;;;8.68;5.75;;;;;;;28.02;43.81;97033.88;5006214;28;20017;-32
2021/07/18 01:16:33;;;;;;;9.07;5.60;;;;;;;28.03;43.74;97031.16;5002331;28;20056;-31
2021/07/18 01:18:58;;;;;;;8.60;5.68;;;;;;;28.03;43.79;97038.19;5000256;28;20361;-31
2021/07/18 01:21:24;;;;;;;7.68;5.10;;;;;;;28.03;43.59;97030.28;5000788;28;20025;-30
2021/07/18 01:23:51;;;;;;;11.13;5.47;;;;;;;28.03;43.48;97036.44;5000356;28;20246;-32
2021/07/18 01:26:16;;;;;;;6.10;4.93;;;;;;;28.05;43.57;97028.44;5001391;28;20029;-32
2021/07/18 01:28:42;;;;;;;7.53;5.50;;;;;;;28.04;43.64;97027.56;4996684;28;20036;-32
2021/07/18 01:31:07;;;;;;;9.90;5.88;;;;;;;28.05;43.43;97031.06;4997844;28;20404;-33
2021/07/18 01:33:33;;;;;;;9.32;5.22;;;;;;;28.06;43.46;97024.84;4997958;28;20037;-32
2021/07/18 01:35:58;;;;;;;12.45;5.72;;;;;;;28.05;43.42;97025.81;5007179;28;20026;-31
2021/07/18 01:38:24;;;;;;;8.38;5.53;;;;;;;28.04;43.30;97024.94;4997042;28;20021;-32
2021/07/18 01:40:49;;;;;;;8.98;5.22;;;;;;;28.05;43.36;97025.81;5000501;28;20091;-34
2021/07/18 01:43:15;;;;;;;8.60;5.63;;;;;;;28.04;43.26;97021.47;5001408;28;20028;-32
2021/07/18 01:45:41;;;;;;;7.30;4.90;;;;;;;28.04;43.45;97027.56;5005489;28;20129;-31
2021/07/18 01:48:06;;;;;;;7.88;4.65;;;;;;;28.04;43.22;97021.47;5000338;28;20033;-30
2021/07/18 01:50:32;;;;;;;6.95;5.22;;;;;;;28.04;43.34;97021.47;5002485;28;20419;-30
2021/07/18 01:52:59;;;;;;;8.25;5.03;;;;;;;28.03;43.35;97017.97;5000732;28;20703;-32
2021/07/18 01:55:24;;;;;;;6.75;4.97;;;;;;;28.05;43.26;97020.53;5003077;28;20040;-31
2021/07/18 01:57:50;;;;;;;8.15;5.60;;;;;;;28.05;43.19;97028.44;4994938;28;20033;-32
2021/07/18 02:00:15;;;;;;;9.98;5.60;;;;;;;28.05;43.31;97023.16;5003398;28;20041;-34
2021/07/18 02:02:51;;;;;;;11.25;5.30;;;;;;;28.04;43.09;97021.47;4998585;28;20052;-35
2021/07/18 02:05:17;;;;;;;11.15;5.30;;;;;;;28.03;43.11;97020.63;5001281;28;20036;-33
2021/07/18 02:07:46;;;;;;;12.48;5.43;;;;;;;28.05;43.20;97023.16;5002245;28;20017;-34
2021/07/18 02:10:12;;;;;;;8.50;5.70;;;;;;;28.03;43.13;97025.88;5003418;28;20600;-33
2021/07/18 02:12:38;;;;;;;8.02;4.78;;;;;;;28.06;43.02;97029.28;5002114;28;20026;-31
2021/07/18 02:15:05;;;;;;;7.72;4.65;;;;;;;28.03;43.00;97031.16;5004209;28;20037;-34
2021/07/18 02:17:31;;;;;;;8.30;4.75;;;;;;;28.05;42.98;97028.44;5003067;28;20120;-29
2021/07/18 02:19:56;;;;;;;7.63;4.93;;;;;;;28.04;42.92;97021.47;5000364;28;20037;-33
2021/07/18 02:22:37;;;;;;;13.80;5.03;;;;;;;28.05;42.89;97028.44;5000259;28;20045;-32
2021/07/18 02:25:04;;;;;;;13.93;5.13;;;;;;;28.06;42.93;97034.56;5009027;28;20534;-32
2021/07/18 02:27:30;;;;;;;8.02;4.93;;;;;;;28.06;42.73;97040.66;5004877;28;20124;-32
2021/07/18 02:29:55;;;;;;;6.43;4.45;;;;;;;28.06;42.78;97030.13;5009768;28;20036;-31
2021/07/18 02:32:21;;;;;;;7.30;5.00;;;;;;;28.05;42.78;97025.81;5000759;28;20025;-31
2021/07/18 02:34:46;;;;;;;6.32;4.55;;;;;;;28.05;42.86;97028.44;5001148;28;20034;-32
2021/07/18 02:37:11;;;;;;;6.80;4.82;;;;;;;28.04;42.67;97029.38;5004872;28;20033;-31
2021/07/18 02:39:37;;;;;;;10.93;4.85;;;;;;;28.05;42.59;97028.44;5007341;28;20033;-32
2021/07/18 02:42:02;;;;;;;9.57;4.63;;;;;;;28.05;42.52;97028.44;5007744;28;20049;-31
2021/07/18 02:44:28;;;;;;;7.80;4.40;;;;;;;28.04;42.58;97037.28;4999129;28;20139;-35
2021/07/18 02:46:53;;;;;;;8.93;4.47;;;;;;;28.04;42.49;97032.84;5006736;28;20560;-32
2021/07/18 02:49:18;;;;;;;6.55;4.28;;;;;;;28.04;42.56;97032.00;5003687;28;20037;-32
2021/07/18 02:51:44;;;;;;;8.68;4.20;;;;;;;28.04;42.39;97037.28;5006529;28;20451;-34
2021/07/18 02:54:09;;;;;;;6.82;4.55;;;;;;;28.04;42.30;97035.47;5008696;28;20036;-31
2021/07/18 02:56:35;;;;;;;6.18;4.82;;;;;;;28.04;42.24;97045.19;5001440;28;20036;-35
2021/07/18 02:59:00;;;;;;;6.15;4.25;;;;;;;28.02;42.46;97033.88;5009203;28;20045;-33
2021/07/18 03:01:25;;;;;;;6.95;4.03;;;;;;;28.03;42.27;97035.56;5002575;28;20030;-31
2021/07/18 03:03:51;;;;;;;6.00;4.35;;;;;;;28.02;42.17;97037.38;5000569;28;20040;-30
2021/07/18 03:06:16;;;;;;;6.85;3.70;;;;;;;28.03;42.20;97041.69;5006869;28;20029;-37
2021/07/18 03:08:42;;;;;;;7.25;4.25;;;;;;;28.02;42.11;97041.78;5006295;28;20040;-30
2021/07/18 03:11:07;;;;;;;5.82;4.15;;;;;;;28.01;42.14;97043.59;5023959;28;20030;-31
2021/07/18 03:13:32;;;;;;;8.55;4.57;;;;;;;28.01;42.25;97043.59;5009929;28;20037;-30
2021/07/18 03:15:58;;;;;;;8.50;3.97;;;;;;;28.02;42.22;97049.69;5019962;28;20399;-34
2021/07/18 03:18:23;;;;;;;7.07;4.00;;;;;;;28.03;42.44;97046.09;5004447;28;20033;-31
2021/07/18 03:20:49;;;;;;;6.40;4.18;;;;;;;28.03;42.25;97051.38;5004606;28;20845;-32
2021/07/18 03:23:14;;;;;;;6.38;4.15;;;;;;;28.04;42.20;97042.56;5002898;28;20028;-32
2021/07/18 03:25:39;;;;;;;7.20;4.18;;;;;;;28.03;42.24;97036.44;4987643;28;20029;-33
2021/07/18 03:28:05;;;;;;;4.55;3.88;;;;;;;28.04;42.16;97046.03;5007076;28;20033;-35
2021/07/18 03:30:30;;;;;;;7.57;4.40;;;;;;;28.05;42.23;97054.78;5004026;28;20057;-31
2021/07/18 03:32:56;;;;;;;6.07;4.05;;;;;;;28.03;42.24;97052.22;5005113;28;20033;-31
2021/07/18 03:35:21;;;;;;;5.43;3.70;;;;;;;28.05;42.20;97052.16;5002212;28;20110;-34
2021/07/18 03:37:47;;;;;;;8.35;4.20;;;;;;;28.06;42.08;97056.47;5001427;28;20068;-31
2021/07/18 03:40:13;;;;;;;5.55;4.32;;;;;;;28.07;42.19;97052.06;5005670;28;20111;-32
2021/07/18 03:42:39;;;;;;;4.95;3.83;;;;;;;28.07;42.13;97042.34;5005167;28;20026;-31
2021/07/18 03:45:05;;;;;;;4.72;3.75;;;;;;;28.05;42.22;97038.97;5006422;28;20025;-32
2021/07/18 03:47:31;;;;;;;8.82;3.78;;;;;;;28.07;42.37;97036.25;5000399;28;20030;-32
2021/07/18 03:49:56;;;;;;;5.75;4.22;;;;;;;28.07;42.25;97042.34;5001662;28;20527;-30
2021/07/18 03:52:21;;;;;;;6.10;3.97;;;;;;;28.06;42.33;97043.28;5003888;28;20029;-33
2021/07/18 03:54:47;;;;;;;8.20;4.43;;;;;;;28.07;42.34;97052.88;5003176;28;20040;-32
2021/07/18 03:57:12;;;;;;;10.02;4.10;;;;;;;28.08;42.23;97048.47;5008508;28;20888;-34
2021/07/18 03:59:38;;;;;;;6.00;4.10;;;;;;;28.08;42.15;97049.34;4999909;28;20040;-35
2021/07/18 04:02:03;;;;;;;7.13;4.40;;;;;;;28.09;42.48;97050.16;5005715;28;20037;-34
2021/07/18 04:04:29;;;;;;;6.43;4.07;;;;;;;28.09;42.29;97044.91;5004827;28;20782;-34
2021/07/18 04:06:54;;;;;;;7.97;4.32;;;;;;;28.09;42.36;97045.75;5005079;28;20021;-31
2021/07/18 04:09:19;;;;;;;7.93;3.83;;;;;;;28.09;42.31;97056.28;4994783;28;20026;-31
2021/07/18 04:11:45;;;;;;;8.45;4.03;;;;;;;28.10;42.24;97051.88;5001703;28;20075;-33
2021/07/18 04:14:10;;;;;;;4.10;3.60;;;;;;;28.09;42.17;97055.44;5004286;28;20088;-32
2021/07/18 04:16:36;;;;;;;6.18;3.90;;;;;;;28.10;42.17;97058.00;5003493;28;20022;-33
2021/07/18 04:19:01;;;;;;;8.73;4.20;;;;;;;28.09;42.19;97051.03;5005308;28;20475;-31
2021/07/18 04:21:26;;;;;;;5.07;4.05;;;;;;;28.10;42.12;97052.72;5003529;28;20024;-36
2021/07/18 04:23:52;;;;;;;9.55;3.97;;;;;;;28.10;42.31;97060.63;5005485;28;20966;-35
2021/07/18 04:26:17;;;;;;;6.03;4.03;;;;;;;28.10;42.18;97057.16;5003248;28;20030;-31
2021/07/18 04:28:43;;;;;;;5.95;3.53;;;;;;;28.10;42.24;97060.63;5008609;28;20036;-30
2021/07/18 04:31:08;;;;;;;6.63;4.20;;;;;;;28.10;42.27;97063.25;5001210;28;20038;-31
2021/07/18 04:33:34;;;;;;;6.00;4.20;;;;;;;28.11;42.02;97054.41;4996159;28;20464;-34
2021/07/18 04:36:00;;;;;;;4.38;3.70;;;;;;;28.12;42.16;97065.81;5001170;28;20530;-31
2021/07/18 04:38:25;;;;;;;4.70;3.72;;;;;;;28.10;42.13;97063.25;4992805;28;20025;-35
2021/07/18 04:40:51;;;;;;;5.57;3.92;;;;;;;28.10;42.15;97065.91;4991844;28;20036;-37
2021/07/18 04:43:16;;;;;;;7.70;4.05;;;;;;;28.11;42.28;97066.75;5006522;28;20029;-33
2021/07/18 04:45:41;;;;;;;8.50;3.72;;;;;;;28.11;42.21;97070.22;5002355;28;20106;-31
2021/07/18 04:48:07;;;;;;;8.23;4.03;;;;;;;28.11;42.00;97069.38;5004701;28;20052;-34
2021/07/18 04:50:32;;;;;;;6.22;3.63;;;;;;;28.11;42.18;97061.47;5000308;28;21546;-32
2021/07/18 04:52:58;;;;;;;6.80;4.20;;;;;;;28.09;42.01;97063.34;5005634;28;20083;-30
2021/07/18 04:55:23;;;;;;;8.70;4.03;;;;;;;28.09;42.21;97064.19;5000456;28;20022;-32
2021/07/18 04:57:49;;;;;;;9.30;3.83;;;;;;;28.11;42.30;97061.47;5003790;28;20636;-32
2021/07/18 05:00:16;;;;;;;7.38;4.13;;;;;;;28.11;42.28;97067.59;4999545;28;20029;-31
2021/07/18 05:02:42;;;;;;;6.75;4.47;;;;;;;28.10;42.33;97063.25;4999064;28;20617;-34
2021/07/18 05:05:09;;;;;;;6.95;3.88;;;;;;;28.10;42.25;97068.53;4997188;28;20037;-33
2021/07/18 05:07:47;;;;;;;8.18;4.00;;;;;;;28.10;42.41;97073.78;5002649;28;20026;-35
2021/07/18 05:10:13;;;;;;;6.72;4.28;;;;;;;28.11;42.18;97075.47;4997124;28;20105;-32
2021/07/18 05:12:38;;;;;;;7.45;3.92;;;;;;;28.11;42.16;97072.03;5005714;28;20396;-31
2021/07/18 05:15:05;;;;;;;7.55;4.03;;;;;;;28.11;42.28;97072.84;4999664;28;20122;-33
2021/07/18 05:17:30;;;;;;;6.72;4.00;;;;;;;28.10;42.26;97071.16;5001880;28;20045;-32
2021/07/18 05:19:58;;;;;;;5.07;3.70;;;;;;;28.11;42.36;97079.94;5002212;28;20108;-32
2021/07/18 05:22:23;;;;;;;9.32;4.32;;;;;;;28.11;42.38;97079.94;5002428;28;20032;-30
2021/07/18 05:24:48;;;;;;;8.23;4.00;;;;;;;28.11;42.36;97079.94;5002740;28;20029;-30
2021/07/18 05:27:14;;;;;;;7.53;4.10;;;;;;;28.11;42.45;97080.75;5001359;28;20033;-31
2021/07/18 05:29:39;;;;;;;8.90;3.95;;;;;;;28.11;42.46;97082.56;5002249;28;20045;-34
2021/07/18 05:32:05;;;;;;;11.23;4.20;;;;;;;28.09;42.30;97082.66;5001952;28;20030;-33
2021/07/18 05:34:32;;;;;;;9.40;4.25;;;;;;;28.11;42.29;97086.03;4999689;28;20060;-36
2021/07/18 05:36:57;;;;;;;10.52;4.13;;;;;;;28.10;42.48;97081.69;4996172;28;20049;-32
2021/07/18 05:39:23;;;;;;;9.05;3.83;;;;;;;28.10;42.42;97076.44;5001339;28;20096;-31
2021/07/18 05:41:48;;;;;;;15.65;4.53;;;;;;;28.10;42.43;97068.53;5005733;28;20029;-31
2021/07/18 05:44:13;;;;;;;10.90;3.83;;;;;;;28.10;42.21;97076.44;4999857;28;20041;-30
2021/07/18 05:46:39;;;;;;;22.90;4.10;;;;;;;28.10;42.30;97076.44;5008102;28;20022;-31
2021/07/18 05:49:04;;;;;;;14.35;3.97;;;;;;;28.11;42.27;97072.84;5005836;28;20040;-33
2021/07/18 05:51:29;;;;;;;15.73;4.47;;;;;;;28.10;42.06;97079.06;5005308;28;20037;-29
2021/07/18 05:53:55;;;;;;;19.67;3.80;;;;;;;28.11;42.20;97080.75;4997948;28;20041;-34
2021/07/18 05:56:20;;;;;;;19.83;4.43;;;;;;;28.11;42.15;97080.75;5008425;28;20033;-32
2021/07/18 05:58:46;;;;;;;16.98;4.70;;;;;;;28.12;42.12;97082.47;5003041;28;20026;-31
2021/07/18 06:01:11;;;;;;;16.33;3.70;;;;;;;28.11;42.24;97083.38;5008255;28;20033;-31
2021/07/18 06:03:36;;;;;;;15.45;3.88;;;;;;;28.11;42.05;97086.03;4998619;28;20060;-30
2021/07/18 06:06:02;;;;;;;14.82;4.00;;;;;;;28.11;41.97;97083.38;5002363;28;20029;-32
2021/07/18 06:08:27;;;;;;;27.73;3.90;;;;;;;28.11;42.07;97080.75;4999393;28;20541;-34
2021/07/18 06:10:53;;;;;;;21.92;3.92;;;;;;;28.11;42.02;97074.66;5006164;28;20052;-34
2021/07/18 06:13:18;;;;;;;20.95;4.20;;;;;;;28.11;42.06;97086.03;4999790;28;20029;-34
2021/07/18 06:15:43;;;;;;;12.45;4.53;;;;;;;28.11;42.10;97091.28;4999806;28;20029;-34
2021/07/18 06:18:09;;;;;;;15.43;3.67;;;;;;;28.11;42.08;97096.56;5003851;28;20037;-33
2021/07/18 06:20:38;;;;;;;12.25;3.22;;;;;;;28.11;41.99;97096.56;5003548;28;20044;-31
2021/07/18 06:23:04;;;;;;;19.27;3.72;;;;;;;28.10;41.81;97094.88;5000470;28;20080;-35
2021/07/18 06:25:29;;;;;;;21.10;3.97;;;;;;;28.11;42.02;97096.56;5004183;28;21605;-31
2021/07/18 06:27:55;;;;;;;16.17;3.88;;;;;;;28.11;41.85;97093.94;4982681;28;20057;-31
2021/07/18 06:30:20;;;;;;;26.48;4.03;;;;;;;28.11;41.92;97091.28;5002283;28;20048;-32
2021/07/18 06:32:45;;;;;;;15.70;3.40;;;;;;;28.12;41.91;97098.28;4996818;28;20041;-33
2021/07/18 06:35:11;;;;;;;18.48;3.83;;;;;;;28.10;41.88;97094.88;5005046;28;20030;-32
2021/07/18 06:37:36;;;;;;;17.85;3.38;;;;;;;28.04;41.82;97089.97;5001542;28;20025;-34
2021/07/18 06:40:04;;;;;;;16.55;3.50;;;;;;;28.09;40.64;97103.72;5001168;28;20038;-32
2021/07/18 06:42:29;;;;;;;7.10;2.28;;;;;;;28.04;39.51;97100.50;5001784;28;20490;-31
2021/07/18 06:44:58;;;;;;;7.32;2.40;;;;;;;27.94;38.28;97104.59;4999938;28;20034;-35
2021/07/18 06:47:24;;;;;;;6.05;2.35;;;;;;;27.83;37.54;97113.09;5000030;28;20026;-33
2021/07/18 06:49:49;;;;;;;6.57;2.20;;;;;;;27.73;37.63;97108.34;4997543;28;20025;-33
2021/07/18 06:52:15;;;;;;;5.40;2.45;;;;;;;27.63;37.55;97110.66;5014888;28;20033;-32
2021/07/18 06:54:41;;;;;;;6.47;2.17;;;;;;;27.54;36.78;97108.53;5005238;28;20036;-31
2021/07/18 06:57:06;;;;;;;10.73;2.50;;;;;;;27.43;37.10;97105.63;4998731;28;20026;-31
2021/07/18 06:59:32;;;;;;;5.60;2.50;;;;;;;27.34;37.10;97101.72;5003817;28;20042;-34
2021/07/18 07:01:57;;;;;;;8.93;2.30;;;;;;;27.24;37.10;97112.72;5000761;28;20665;-33
2021/07/18 07:04:22;;;;;;;6.35;2.03;;;;;;;27.18;37.14;97109.56;4999676;28;20037;-34
2021/07/18 07:06:48;;;;;;;6.47;2.10;;;;;;;27.10;36.88;97105.59;5002589;28;20030;-37
2021/07/18 07:09:13;;;;;;;4.57;2.15;;;;;;;27.06;37.18;97113.72;5002789;28;20959;-31
2021/07/18 07:11:39;;;;;;;5.85;2.15;;;;;;;26.99;37.10;97114.06;4998643;28;20032;-32
2021/07/18 07:14:04;;;;;;;9.43;2.28;;;;;;;26.93;37.04;97109.06;5000870;28;20026;-37
2021/07/18 07:16:30;;;;;;;6.05;1.70;;;;;;;26.85;36.82;97112.13;4999622;28;20042;-30
2021/07/18 07:18:55;;;;;;;4.97;1.88;;;;;;;26.80;37.07;97114.13;5000695;28;20026;-29
2021/07/18 07:21:20;;;;;;;5.88;2.08;;;;;;;26.74;37.22;97114.47;5000964;28;20514;-32
2021/07/18 07:23:46;;;;;;;4.28;1.83;;;;;;;26.68;37.15;97114.78;5004097;28;20036;-34
2021/07/18 07:26:11;;;;;;;5.85;2.13;;;;;;;26.61;36.93;97107.22;5004467;28;20172;-33
2021/07/18 07:28:36;;;;;;;4.38;2.00;;;;;;;26.56;37.36;97113.63;5003006;28;21747;-29
2021/07/18 07:31:02;;;;;;;11.63;2.40;;;;;;;26.53;37.45;97119.03;5001090;28;20029;-33
2021/07/18 07:33:29;;;;;;;3.63;1.85;;;;;;;26.52;37.76;97120.84;5002297;28;20034;-34
2021/07/18 07:35:54;;;;;;;3.80;2.10;;;;;;;26.52;38.06;97120.84;4981311;28;20021;-32
2021/07/18 07:38:19;;;;;;;3.55;1.90;;;;;;;26.54;38.17;97126.03;5000983;28;20411;-30
2021/07/18 07:40:45;;;;;;;8.88;2.50;;;;;;;26.56;38.16;97121.53;5001639;28;20095;-35
2021/07/18 07:43:12;;;;;;;5.57;2.00;;;;;;;26.56;38.01;97125.00;5000811;28;20026;-31
2021/07/18 07:45:37;;;;;;;7.47;2.03;;;;;;;26.57;37.92;97118.81;4999420;28;20034;-38
2021/07/18 07:48:03;;;;;;;4.85;2.40;;;;;;;26.57;37.79;97124.06;4999327;28;20491;-31
2021/07/18 07:50:28;;;;;;;5.20;2.25;;;;;;;26.51;37.52;97119.13;4999759;28;20151;-32
2021/07/18 07:52:54;;;;;;;10.07;2.33;;;;;;;26.47;37.74;97117.59;5002812;28;20087;-32
2021/07/18 07:55:19;;;;;;;4.45;2.08;;;;;;;26.45;38.05;97108.91;5000222;28;21453;-29
2021/07/18 07:57:44;;;;;;;8.77;2.35;;;;;;;26.44;38.25;97115.13;5000817;28;20028;-32
2021/07/18 08:00:13;;;;;;;8.13;2.20;;;;;;;26.40;38.09;97106.53;4999288;28;20502;-29
2021/07/18 08:02:38;;;;;;;9.48;2.50;;;;;;;26.38;37.99;97112.81;5000865;28;20119;-33
2021/07/18 08:05:05;;;;;;;6.80;2.30;;;;;;;26.33;38.14;97110.41;5016910;28;20034;-29
2021/07/18 08:07:30;;;;;;;4.40;2.20;;;;;;;26.31;38.04;97107.00;4999427;28;20053;-36
2021/07/18 08:09:56;;;;;;;6.13;2.53;;;;;;;26.29;38.23;97109.72;5001385;28;20055;-31
2021/07/18 08:12:21;;;;;;;5.25;2.70;;;;;;;26.27;38.30;97110.72;5000511;28;20021;-31
2021/07/18 08:14:46;;;;;;;6.13;2.42;;;;;;;26.25;38.44;97108.13;4999213;28;20898;-34
2021/07/18 08:17:14;;;;;;;7.90;2.67;;;;;;;26.27;38.48;97102.84;4998900;28;21941;-28
2021/07/18 08:19:42;;;;;;;16.50;2.30;;;;;;;26.28;38.52;97104.53;4996971;28;20037;-33
2021/07/18 08:22:08;;;;;;;5.57;2.17;;;;;;;26.28;38.33;97097.47;5014082;28;23039;-31
2021/07/18 08:24:33;;;;;;;7.72;2.35;;;;;;;26.30;38.43;97106.16;4998053;28;20576;-32
2021/07/18 08:26:58;;;;;;;8.25;3.03;;;;;;;26.32;38.70;97104.28;4998465;28;20033;-27
2021/07/18 08:29:24;;;;;;;6.95;2.58;;;;;;;26.37;38.62;97103.19;4997993;28;20033;-32
2021/07/18 08:31:49;;;;;;;9.30;2.63;;;;;;;26.37;38.48;97095.31;4998443;28;20033;-30
2021/07/18 08:34:16;;;;;;;8.23;2.58;;;;;;;26.42;38.75;97103.81;4998540;28;20025;-30
2021/07/18 08:36:41;;;;;;;33.10;3.33;;;;;;;26.45;38.85;97107.16;5012915;28;20025;-28
2021/07/18 08:39:06;;;;;;;27.02;3.30;;;;;;;26.50;38.72;97106.06;4996646;28;20540;-30
2021/07/18 08:41:32;;;;;;;7.82;2.67;;;;;;;26.54;38.76;97102.38;4998104;28;20033;-31
2021/07/18 08:43:57;;;;;;;7.00;2.88;;;;;;;26.60;38.76;97112.53;4998861;28;20049;-30
2021/07/18 08:46:22;;;;;;;6.13;2.35;;;;;;;26.63;38.79;97107.13;5007633;28;20383;-32
2021/07/18 08:48:48;;;;;;;5.32;2.63;;;;;;;26.66;38.63;97111.38;5000795;28;20030;-29
2021/07/18 08:51:14;;;;;;;5.45;2.60;;;;;;;26.71;38.77;97112.00;5000577;28;20068;-30
2021/07/18 08:53:39;;;;;;;10.68;2.60;;;;;;;26.74;38.59;97104.78;4998479;28;20017;-31
2021/07/18 08:56:04;;;;;;;9.60;2.88;;;;;;;26.77;38.36;97102.94;4996666;28;20041;-31
2021/07/18 08:58:30;;;;;;;7.00;2.50;;;;;;;26.77;38.42;97097.69;4999780;28;20044;-30
2021/07/18 09:00:55;;;;;;;11.98;2.75;;;;;;;26.76;38.31;97096.81;4999385;28;20087;-29
2021/07/18 09:03:20;;;;;;;8.57;2.40;;;;;;;26.77;38.51;97098.53;4998618;28;20722;-31
2021/07/18 09:05:46;;;;;;;5.78;2.25;;;;;;;26.78;38.44;97100.25;4998293;28;20053;-27
2021/07/18 09:08:23;;;;;;;10.63;2.50;;;;;;;26.79;38.37;97101.94;5000285;28;20116;-30
2021/07/18 09:10:48;;;;;;;11.13;2.85;;;;;;;26.81;38.36;97105.31;4996398;28;20029;-31
2021/07/18 09:13:19;;;;;;;7.22;2.47;;;;;;;26.85;38.53;97100.78;5000172;28;20086;-30
2021/07/18 09:15:47;;;;;;;10.27;2.60;;;;;;;26.88;38.53;97097.94;5006619;28;20049;-28
2021/07/18 09:18:17;;;;;;;7.80;2.97;;;;;;;26.92;38.45;97096.03;5004815;28;20018;-29
2021/07/18 09:20:44;;;;;;;7.45;2.80;;;;;;;26.94;38.51;97095.06;5003430;28;20030;-28
2021/07/18 09:23:16;;;;;;;8.38;2.50;;;;;;;26.98;38.57;97101.84;5006441;28;20040;-30
2021/07/18 09:25:42;;;;;;;7.28;2.40;;;;;;;27.03;38.65;97096.31;5005204;28;20026;-31
2021/07/18 09:28:12;;;;;;;5.82;2.45;;;;;;;27.06;38.55;97095.31;5002972;28;20088;-31
2021/07/18 09:30:37;;;;;;;16.67;2.85;;;;;;;27.09;38.66;97088.13;5005572;28;20687;-32
2021/07/18 09:33:03;;;;;;;9.10;2.83;;;;;;;27.12;38.72;97085.31;5007652;28;20133;-33
2021/07/18 09:35:28;;;;;;;19.20;3.10;;;;;;;27.16;38.66;97087.78;5006854;28;20034;-31
2021/07/18 09:37:54;;;;;;;14.23;2.55;;;;;;;27.18;38.64;97092.03;5006621;28;20860;-30
2021/07/18 09:40:21;;;;;;;18.27;2.58;;;;;;;27.21;38.90;97077.84;5008529;28;20282;-30
2021/07/18 09:42:47;;;;;;;7.97;2.17;;;;;;;27.24;39.02;97086.41;5005137;28;20033;-29
2021/07/18 09:45:15;;;;;;;8.50;2.40;;;;;;;27.27;39.13;97081.00;5006608;28;20055;-29
2021/07/18 09:47:54;;;;;;;13.30;2.58;;;;;;;27.30;39.11;97079.97;5006429;28;20022;-30
2021/07/18 09:50:20;;;;;;;13.90;2.40;;;;;;;27.34;39.13;97076.25;5005469;28;20038;-32
2021/07/18 09:52:48;;;;;;;15.32;2.35;;;;;;;27.36;39.16;97074.41;5006355;28;20523;-31
2021/07/18 09:55:20;;;;;;;15.20;2.55;;;;;;;27.38;39.18;97074.28;5006216;28;20510;-30
2021/07/18 09:57:46;;;;;;;14.68;2.72;;;;;;;27.41;39.36;97075.94;5007247;28;20029;-35
2021/07/18 10:00:12;;;;;;;14.45;2.50;;;;;;;27.43;39.41;97069.63;4991447;28;20025;-31
2021/07/18 10:02:39;;;;;;;9.30;2.22;;;;;;;27.46;39.30;97068.63;5010157;28;20032;-33
2021/07/18 10:05:05;;;;;;;14.77;2.38;;;;;;;27.46;39.27;97068.63;5006229;28;20021;-31
2021/07/18 10:07:32;;;;;;;10.20;2.58;;;;;;;27.48;39.42;97070.22;5018881;28;20913;-34
2021/07/18 10:09:58;;;;;;;10.40;2.40;;;;;;;27.49;39.36;97057.91;5003820;28;20025;-30
2021/07/18 10:12:24;;;;;;;9.50;2.38;;;;;;;27.51;39.56;97066.56;4987113;28;20034;-31
2021/07/18 10:14:50;;;;;;;9.80;2.67;;;;;;;27.53;39.43;97072.59;4988209;28;20041;-30
2021/07/18 10:17:15;;;;;;;11.13;2.58;;;;;;;27.53;39.39;97070.81;5006495;28;20025;-31
2021/07/18 10:19:40;;;;;;;7.25;2.28;;;;;;;27.55;39.50;97061.97;5007933;28;20030;-32
2021/07/18 10:22:06;;;;;;;9.57;2.22;;;;;;;27.56;39.40;97051.38;5002669;28;20540;-32
2021/07/18 10:24:32;;;;;;;16.77;2.40;;;;;;;27.57;39.47;97055.69;5000351;28;20034;-33
2021/07/18 10:27:02;;;;;;;12.93;2.45;;;;;;;27.58;39.47;97054.75;5002755;28;20068;-29
2021/07/18 10:29:28;;;;;;;16.58;2.70;;;;;;;27.59;39.49;97051.19;5005395;28;20101;-31
2021/07/18 10:31:54;;;;;;;15.23;2.50;;;;;;;27.61;39.56;97051.97;5003746;28;20048;-29
2021/07/18 10:34:24;;;;;;;6.85;2.35;;;;;;;27.62;39.67;97048.41;5009066;28;20217;-30
2021/07/18 10:36:50;;;;;;;13.68;2.13;;;;;;;27.63;39.78;97054.53;4998934;28;20317;-31
2021/07/18 10:39:28;;;;;;;7.75;2.05;;;;;;;27.64;39.66;97057.06;5004595;28;20080;-34
2021/07/18 10:41:54;;;;;;;8.25;2.30;;;;;;;27.68;39.74;97051.66;5007064;28;20033;-32
2021/07/18 10:44:19;;;;;;;5.90;2.10;;;;;;;27.68;39.67;97051.66;5007982;28;20040;-31
2021/07/18 10:46:45;;;;;;;8.20;2.10;;;;;;;27.70;39.59;97044.50;5002674;28;20029;-33
2021/07/18 10:49:14;;;;;;;5.15;1.50;;;;;;;27.71;39.85;97040.91;5003072;28;20043;-31
2021/07/18 10:51:41;;;;;;;9.20;2.20;;;;;;;27.71;39.55;97044.41;5000844;28;20115;-29
2021/07/18 10:54:26;;;;;;;5.82;1.98;;;;;;;27.74;39.83;97040.75;5001858;28;20032;-32
2021/07/18 10:56:53;;;;;;;17.23;1.98;;;;;;;27.75;39.83;97042.44;5001580;28;20040;-32
2021/07/18 10:59:38;;;;;;;6.10;1.92;;;;;;;27.75;39.80;97047.72;4997627;28;20041;-30
2021/07/18 11:02:07;;;;;;;5.03;2.00;;;;;;;27.77;40.16;97035.31;4992854;28;20029;-35
2021/07/18 11:04:49;;;;;;;6.22;1.80;;;;;;;27.75;40.37;97038.03;5000452;28;20113;-32
2021/07/18 11:07:20;;;;;;;8.65;2.50;;;;;;;27.76;40.45;97052.03;5006152;28;20040;-31
2021/07/18 11:10:06;;;;;;;16.75;2.13;;;;;;;27.78;40.39;97045.78;5007251;28;20022;-31
2021/07/18 11:12:36;;;;;;;10.48;2.22;;;;;;;27.82;40.39;97043.78;4993556;28;20538;-30
2021/07/18 11:15:17;;;;;;;11.18;2.25;;;;;;;27.88;40.15;97050.50;5002448;28;20124;-30
2021/07/18 11:17:59;;;;;;;8.05;2.00;;;;;;;27.94;39.88;97044.00;5006673;28;20583;-30
2021/07/18 11:20:40;;;;;;;;;;;;;;;28.00;39.71;97051.56;5005994;28;20022;-29
2021/07/18 11:23:06;;;;;;;8.90;2.10;;;;;;;28.05;39.58;97036.34;5005563;28;20299;-31
2021/07/18 11:25:47;;;;;;;5.22;2.10;;;;;;;28.09;39.44;97040.50;5007114;28;20631;-30
2021/07/18 11:28:30;;;;;;;5.65;1.92;;;;;;;28.12;39.65;97040.31;5002312;28;20607;-29